Time;durP1;ratioP1;P1;durP2;ratioP2;P2;SDS_P1;SDS_P2;PMS_P1;PMS_P2;Temp;Humidity;BMP_temperature;BMP_pressure;BME280_temperature;BME280_humidity;BME280_pressure;Samples;Min_cycle;Max_cycle;Signal;HPM_P1;HPM_P2
2021/01/26 00:01:04;;;;;;;6.93;5.83;;;0.40;99.90;;;;;;5032889;28;20175;-76
2021/01/26 00:03:30;;;;;;;7.27;6.63;;;0.40;99.90;;;;;;5032636;28;20178;-75
2021/01/26 00:05:56;;;;;;;6.30;5.80;;;0.40;99.90;;;;;;5033677;28;20591;-76
2021/01/26 00:08:21;;;;;;;6.87;6.33;;;0.40;99.90;;;;;;5042936;28;20170;-76
2021/01/26 00:10:48;;;;;;;6.53;5.93;;;0.40;99.90;;;;;;5043092;28;20221;-75
2021/01/26 00:13:15;;;;;;;6.97;6.37;;;0.50;99.90;;;;;;5036070;28;20724;-75
2021/01/26 00:15:41;;;;;;;7.03;6.43;;;0.40;99.90;;;;;;5036357;28;20291;-75
2021/01/26 00:18:07;;;;;;;6.97;6.27;;;0.50;99.90;;;;;;5035980;28;20241;-76
2021/01/26 00:20:34;;;;;;;6.77;6.17;;;0.40;99.90;;;;;;5036120;28;20188;-76
2021/01/26 00:23:01;;;;;;;7.13;6.17;;;0.40;99.90;;;;;;5035806;28;20179;-76
2021/01/26 00:25:29;;;;;;;6.53;5.90;;;0.40;99.90;;;;;;5034674;28;20630;-75
2021/01/26 00:27:56;;;;;;;6.80;6.23;;;0.40;99.90;;;;;;5035831;28;20177;-76
2021/01/26 00:30:25;;;;;;;7.00;6.30;;;0.40;99.90;;;;;;5035927;28;20213;-76
2021/01/26 00:32:51;;;;;;;6.50;5.90;;;0.40;99.90;;;;;;5036126;28;20182;-75
2021/01/26 00:35:20;;;;;;;7.33;6.73;;;0.40;99.90;;;;;;5035792;28;20198;-75
2021/01/26 00:37:46;;;;;;;6.70;6.10;;;0.40;99.90;;;;;;5035832;28;20176;-76
2021/01/26 00:40:13;;;;;;;6.53;5.93;;;0.40;99.90;;;;;;5035774;28;20287;-76
2021/01/26 00:42:39;;;;;;;6.87;6.37;;;0.40;99.90;;;;;;5035551;28;20178;-76
2021/01/26 00:45:06;;;;;;;6.60;6.10;;;0.40;99.90;;;;;;5035689;28;20679;-75
2021/01/26 00:47:32;;;;;;;6.97;6.27;;;0.30;99.90;;;;;;5035692;28;20175;-76
2021/01/26 00:49:58;;;;;;;6.87;6.30;;;0.30;99.90;;;;;;5035567;28;20192;-75
2021/01/26 00:52:24;;;;;;;7.20;6.50;;;0.40;99.90;;;;;;5035358;28;20664;-76
2021/01/26 00:54:50;;;;;;;7.10;6.40;;;0.40;99.90;;;;;;5035313;28;20273;-76
2021/01/26 00:57:19;;;;;;;6.00;5.50;;;0.30;99.90;;;;;;5035222;28;20182;-75
2021/01/26 00:59:47;;;;;;;6.50;5.33;;;0.30;99.90;;;;;;5035273;28;20750;-76
2021/01/26 01:02:13;;;;;;;6.73;6.00;;;0.30;99.90;;;;;;5033809;28;20230;-75
2021/01/26 01:04:40;;;;;;;5.77;5.20;;;0.30;99.90;;;;;;5035057;28;20225;-76
2021/01/26 01:07:06;;;;;;;7.77;6.37;;;0.30;99.90;;;;;;5035290;28;20676;-76
2021/01/26 01:09:32;;;;;;;7.50;6.80;;;0.30;99.90;;;;;;5034403;28;20190;-76
2021/01/26 01:11:57;;;;;;;6.43;5.83;;;0.30;99.90;;;;;;5035818;28;20200;-76
2021/01/26 01:14:23;;;;;;;6.87;6.27;;;0.30;99.90;;;;;;5035769;28;20678;-76
2021/01/26 01:16:49;;;;;;;7.57;6.87;;;0.30;99.90;;;;;;5034715;28;20183;-76
2021/01/26 01:19:15;;;;;;;6.57;6.07;;;0.30;99.90;;;;;;5035134;28;20290;-76
2021/01/26 01:21:41;;;;;;;6.20;5.70;;;0.30;99.90;;;;;;5036021;28;20189;-76
2021/01/26 01:24:07;;;;;;;6.43;5.93;;;0.30;99.90;;;;;;5036551;28;20186;-76
2021/01/26 01:26:33;;;;;;;7.33;6.73;;;0.30;99.90;;;;;;5035296;28;20186;-76
2021/01/26 01:28:59;;;;;;;6.70;6.10;;;0.30;99.90;;;;;;5035789;28;20181;-76
2021/01/26 01:31:24;;;;;;;5.90;5.40;;;0.30;99.90;;;;;;5035687;28;20182;-76
2021/01/26 01:33:50;;;;;;;6.77;6.10;;;0.30;99.90;;;;;;5035558;28;20186;-76
2021/01/26 01:36:17;;;;;;;6.80;6.13;;;0.30;99.90;;;;;;5036349;28;20206;-76
2021/01/26 01:38:42;;;;;;;6.13;5.63;;;0.30;99.90;;;;;;5036068;28;20202;-76
2021/01/26 01:41:09;;;;;;;6.20;5.60;;;0.20;99.90;;;;;;5035970;28;20178;-76
2021/01/26 01:43:35;;;;;;;6.00;5.47;;;0.30;99.90;;;;;;5036242;28;20182;-76
2021/01/26 01:46:06;;;;;;;6.10;5.60;;;0.30;99.90;;;;;;5036733;28;20199;-76
2021/01/26 01:48:35;;;;;;;6.23;5.17;;;0.20;99.90;;;;;;5036291;28;20185;-76
2021/01/26 01:51:11;;;;;;;5.50;5.00;;;0.20;99.90;;;;;;5035683;28;20178;-76
2021/01/26 01:53:46;;;;;;;5.27;4.87;;;0.20;99.90;;;;;;5036362;28;20178;-76
2021/01/26 01:56:26;;;;;;;5.87;5.37;;;0.20;99.90;;;;;;5038021;28;20178;-76
2021/01/26 01:58:57;;;;;;;5.50;5.00;;;0.10;99.90;;;;;;5035304;28;20691;-76
2021/01/26 02:01:26;;;;;;;4.80;4.40;;;0.10;99.90;;;;;;5035343;28;20170;-76
2021/01/26 02:03:55;;;;;;;4.23;3.93;;;0.10;99.90;;;;;;5034885;28;20182;-76
2021/01/26 02:06:25;;;;;;;4.50;4.10;;;0.10;99.90;;;;;;5033347;28;20178;-76
2021/01/26 02:09:05;;;;;;;5.73;4.00;;;0.10;99.90;;;;;;5033007;28;20288;-76
2021/01/26 02:11:32;;;;;;;4.60;4.20;;;0.10;99.90;;;;;;5033410;28;20186;-76
2021/01/26 02:13:57;;;;;;;4.43;4.03;;;0.10;99.90;;;;;;5036175;28;20676;-76
2021/01/26 02:16:44;;;;;;;4.23;3.83;;;0.10;99.90;;;;;;5031675;28;20206;-76
2021/01/26 02:19:16;;;;;;;4.70;3.67;;;0.00;99.90;;;;;;5033039;28;20197;-76
2021/01/26 02:22:07;;;;;;;3.83;3.53;;;0.00;99.90;;;;;;5034383;28;20247;-75
2021/01/26 02:24:57;;;;;;;4.67;4.27;;;0.00;99.90;;;;;;5034335;28;20199;-76
2021/01/26 02:27:25;;;;;;;4.63;4.23;;;-0.10;99.90;;;;;;5034069;28;20637;-76
2021/01/26 02:30:04;;;;;;;4.10;3.70;;;-0.10;99.90;;;;;;5032800;28;20186;-76
2021/01/26 02:33:24;;;;;;;4.30;3.90;;;-0.10;99.90;;;;;;5034327;28;20187;-76
2021/01/26 02:36:09;;;;;;;3.67;3.37;;;-0.10;99.90;;;;;;4995944;28;20198;-76
2021/01/26 02:38:47;;;;;;;3.90;3.60;;;-0.10;99.90;;;;;;5011967;28;20234;-76
2021/01/26 02:41:25;;;;;;;3.70;3.40;;;-0.10;99.90;;;;;;5026675;28;20255;-76
2021/01/26 02:43:51;;;;;;;3.50;3.20;;;-0.10;99.90;;;;;;5030085;28;20178;-76
2021/01/26 02:46:43;;;;;;;3.83;3.53;;;-0.10;99.90;;;;;;5034206;28;20543;-76
2021/01/26 02:49:43;;;;;;;4.03;3.60;;;-0.10;99.90;;;;;;5033933;28;20199;-76
2021/01/26 02:52:36;;;;;;;3.93;3.10;;;-0.20;99.90;;;;;;5033391;28;20185;-76
2021/01/26 02:55:11;;;;;;;3.70;3.40;;;-0.20;99.90;;;;;;5027415;28;20232;-76
2021/01/26 02:57:50;;;;;;;3.43;3.13;;;-0.20;99.90;;;;;;5032282;28;20169;-76
2021/01/26 03:00:24;;;;;;;4.67;3.93;;;-0.20;99.90;;;;;;5031420;28;20702;-76
2021/01/26 03:03:19;;;;;;;4.30;3.07;;;-0.20;99.90;;;;;;5032567;28;20177;-76
2021/01/26 03:06:07;;;;;;;4.20;3.80;;;-0.20;99.90;;;;;;5033973;28;20218;-76
2021/01/26 03:08:49;;;;;;;3.20;2.90;;;-0.20;99.90;;;;;;5033684;28;20174;-76
2021/01/26 03:11:17;;;;;;;3.20;2.90;;;-0.20;99.90;;;;;;5033291;28;20198;-76
2021/01/26 03:14:03;;;;;;;2.90;2.60;;;-0.20;99.90;;;;;;5033726;28;20670;-76
2021/01/26 03:16:30;;;;;;;2.63;2.43;;;-0.20;99.90;;;;;;5032233;28;20182;-76
2021/01/26 03:19:15;;;;;;;1.83;1.73;;;-0.10;99.90;;;;;;5032077;28;20255;-75
2021/01/26 03:21:44;;;;;;;2.10;1.90;;;-0.10;99.90;;;;;;5032998;28;20193;-76
2021/01/26 03:24:16;;;;;;;3.17;2.23;;;0.00;99.90;;;;;;5032883;28;20262;-76
2021/01/26 03:26:43;;;;;;;1.97;1.87;;;0.10;99.90;;;;;;5032968;28;20190;-76
2021/01/26 03:29:11;;;;;;;2.40;2.20;;;0.10;99.90;;;;;;5032536;28;20194;-76
2021/01/26 03:31:46;;;;;;;2.33;2.03;;;0.10;99.90;;;;;;5033028;28;20186;-76
2021/01/26 03:34:12;;;;;;;2.93;2.70;;;0.10;99.90;;;;;;5032912;28;20216;-76
2021/01/26 03:36:38;;;;;;;3.40;3.10;;;0.10;99.90;;;;;;5032877;28;20185;-76
2021/01/26 03:39:06;;;;;;;3.87;3.30;;;-0.10;99.90;;;;;;5032925;28;20214;-75
2021/01/26 03:41:32;;;;;;;4.00;3.70;;;-0.20;99.90;;;;;;5035086;28;20217;-76
2021/01/26 03:43:57;;;;;;;3.60;3.30;;;-0.20;99.90;;;;;;5036659;28;20213;-76
2021/01/26 03:46:46;;;;;;;3.60;3.30;;;-0.30;99.90;;;;;;5036701;28;20606;-76
2021/01/26 03:49:33;;;;;;;4.70;4.27;;;-0.40;99.90;;;;;;5036663;28;20204;-76
2021/01/26 03:52:07;;;;;;;5.40;4.90;;;-0.50;99.90;;;;;;5036651;28;20196;-76
2021/01/26 03:54:46;;;;;;;5.50;5.00;;;-0.60;99.90;;;;;;5035575;28;20205;-77
2021/01/26 03:57:23;;;;;;;5.87;5.20;;;-0.60;99.90;;;;;;5036820;28;20181;-76
2021/01/26 04:00:11;;;;;;;6.20;5.60;;;-0.60;99.90;;;;;;5035352;28;20251;-76
2021/01/26 04:02:54;;;;;;;10.83;6.07;;;-0.60;99.90;;;;;;5037679;28;20189;-75
2021/01/26 04:05:26;;;;;;;6.40;5.90;;;-0.60;99.90;;;;;;5042759;22;20638;-76
2021/01/26 04:08:18;;;;;;;6.60;5.90;;;-0.60;99.90;;;;;;5016455;28;20186;-75
2021/01/26 04:11:05;;;;;;;6.97;6.27;;;-0.60;99.90;;;;;;5016628;28;20580;-74
2021/01/26 04:13:36;;;;;;;6.77;6.17;;;-0.70;99.90;;;;;;5015066;28;20181;-75
2021/01/26 04:16:02;;;;;;;6.70;6.10;;;-0.70;99.90;;;;;;5016234;28;20199;-75
2021/01/26 04:18:35;;;;;;;6.47;5.80;;;-0.70;99.90;;;;;;5016465;28;20259;-75
2021/01/26 04:21:02;;;;;;;5.97;5.33;;;-0.70;99.90;;;;;;5015187;28;20188;-75
2021/01/26 04:23:29;;;;;;;5.30;4.80;;;-0.60;99.90;;;;;;5018793;28;20549;-75
2021/01/26 04:26:11;;;;;;;4.70;4.23;;;-0.60;99.90;;;;;;5015796;28;20203;-75
2021/01/26 04:28:41;;;;;;;4.00;3.70;;;-0.50;99.90;;;;;;5015630;28;20239;-75
2021/01/26 04:31:10;;;;;;;4.80;4.40;;;-0.50;99.90;;;;;;5016083;28;20205;-75
2021/01/26 04:33:36;;;;;;;4.23;3.83;;;-0.50;99.90;;;;;;5015745;28;20173;-75
2021/01/26 04:36:03;;;;;;;3.73;3.43;;;-0.40;99.90;;;;;;5015795;28;20719;-75
2021/01/26 04:38:29;;;;;;;4.40;4.00;;;-0.40;99.90;;;;;;5015987;28;20202;-75
2021/01/26 04:41:09;;;;;;;3.60;3.30;;;-0.40;99.90;;;;;;5015931;28;20171;-75
2021/01/26 04:43:47;;;;;;;3.60;3.30;;;-0.40;99.90;;;;;;5015271;28;20528;-75
2021/01/26 04:46:23;;;;;;;4.10;3.70;;;-0.40;99.90;;;;;;5015880;28;20189;-75
2021/01/26 04:49:10;;;;;;;5.77;3.53;;;-0.40;99.90;;;;;;5015874;28;20606;-76
2021/01/26 04:52:10;;;;;;;4.67;4.17;;;-0.40;99.90;;;;;;5013920;28;20621;-75
2021/01/26 04:55:01;;;;;;;4.10;3.70;;;-0.50;99.90;;;;;;5015679;28;20242;-75
2021/01/26 04:57:51;;;;;;;3.13;2.83;;;-0.50;99.90;;;;;;5015721;28;20180;-76
2021/01/26 05:00:37;;;;;;;3.97;2.73;;;-0.40;99.90;;;;;;5014528;28;20178;-75
2021/01/26 05:03:34;;;;;;;3.07;2.73;;;-0.40;99.90;;;;;;5014293;28;20188;-75
2021/01/26 05:06:05;;;;;;;2.70;2.50;;;-0.30;99.90;;;;;;5010454;28;20300;-75
2021/01/26 05:08:38;;;;;;;3.10;2.80;;;-0.30;99.90;;;;;;5014647;28;20182;-75
2021/01/26 05:11:17;;;;;;;3.97;3.60;;;-0.30;99.90;;;;;;5013999;28;20174;-75
2021/01/26 05:13:49;;;;;;;3.70;3.40;;;-0.30;99.90;;;;;;5014427;28;20239;-75
2021/01/26 05:16:48;;;;;;;5.20;4.37;;;-0.40;99.90;;;;;;5015043;28;20209;-76
2021/01/26 05:19:25;;;;;;;5.43;4.87;;;-0.50;99.90;;;;;;5006387;28;20205;-75
2021/01/26 05:22:03;;;;;;;5.70;5.20;;;-0.60;99.90;;;;;;5015267;28;20165;-76
2021/01/26 05:25:14;;;;;;;4.97;4.57;;;-0.70;99.90;;;;;;5015142;28;20549;-75
2021/01/26 05:27:40;;;;;;;5.30;4.80;;;-0.70;99.90;;;;;;5001288;28;20344;-76
2021/01/26 05:30:14;;;;;;;5.53;5.03;;;-0.70;99.90;;;;;;5013245;28;20220;-75
2021/01/26 05:32:46;;;;;;;5.13;4.40;;;-0.70;99.90;;;;;;5025718;28;20695;-75
2021/01/26 05:35:13;;;;;;;5.13;4.67;;;-0.70;99.90;;;;;;4997544;28;20192;-75
2021/01/26 05:37:39;;;;;;;5.00;4.50;;;-0.70;99.90;;;;;;5012153;28;20274;-76
2021/01/26 05:40:12;;;;;;;4.00;3.70;;;-0.50;99.90;;;;;;5011100;28;20245;-76
2021/01/26 05:42:38;;;;;;;4.97;3.90;;;-0.60;99.90;;;;;;5010367;28;20177;-75
2021/01/26 05:45:18;;;;;;;4.87;4.33;;;-0.60;99.90;;;;;;5013412;28;20205;-75
2021/01/26 05:47:44;;;;;;;5.33;4.67;;;-0.60;99.90;;;;;;5009987;28;20193;-76
2021/01/26 05:50:30;;;;;;;5.40;4.57;;;-0.60;99.90;;;;;;5013383;28;20190;-75
2021/01/26 05:53:04;;;;;;;5.87;4.97;;;-0.50;99.90;;;;;;5013554;28;20186;-75
2021/01/26 05:55:32;;;;;;;12.37;5.33;;;-0.50;99.90;;;;;;5010446;28;20252;-75
2021/01/26 05:58:10;;;;;;;6.37;5.10;;;-0.50;99.90;;;;;;5012544;28;20174;-75
2021/01/26 06:00:36;;;;;;;8.57;6.43;;;-0.60;99.90;;;;;;5013116;28;20170;-75
2021/01/26 06:03:06;;;;;;;11.20;7.47;;;-0.60;99.90;;;;;;5012032;28;20567;-75
2021/01/26 06:05:32;;;;;;;9.77;7.40;;;-0.70;99.90;;;;;;5014461;28;20209;-76
2021/01/26 06:08:05;;;;;;;12.10;7.57;;;-0.70;99.90;;;;;;5013301;28;20186;-75
2021/01/26 06:10:32;;;;;;;11.17;8.20;;;-0.70;99.90;;;;;;5013277;28;20169;-76
2021/01/26 06:12:58;;;;;;;11.77;8.83;;;-0.70;99.90;;;;;;5013036;28;20178;-76
2021/01/26 06:15:28;;;;;;;10.27;8.50;;;-0.70;99.90;;;;;;5012030;28;20211;-75
2021/01/26 06:18:10;;;;;;;10.73;9.10;;;-0.60;99.90;;;;;;5011736;28;20230;-75
2021/01/26 06:20:38;;;;;;;10.83;9.17;;;-0.60;99.90;;;;;;5012832;28;20553;-76
2021/01/26 06:23:19;;;;;;;9.20;8.07;;;-0.60;99.90;;;;;;5012713;28;20253;-74
2021/01/26 06:25:52;;;;;;;10.17;8.40;;;-0.60;99.90;;;;;;5012861;28;20739;-75
2021/01/26 06:28:40;;;;;;;10.63;9.20;;;-0.60;99.90;;;;;;5012266;28;20657;-76
2021/01/26 06:31:45;;;;;;;15.20;8.70;;;-0.60;99.90;;;;;;5017899;28;20178;-76
2021/01/26 06:34:25;;;;;;;11.93;8.50;;;-0.60;99.90;;;;;;5005180;28;20193;-75
2021/01/26 06:36:59;;;;;;;10.57;8.33;;;-0.50;99.90;;;;;;5012228;28;20284;-75
2021/01/26 06:39:44;;;;;;;11.03;7.77;;;-0.50;99.90;;;;;;5013033;28;20241;-75
2021/01/26 06:42:19;;;;;;;12.33;9.13;;;-0.50;99.90;;;;;;5010892;28;20177;-76
2021/01/26 06:44:55;;;;;;;10.00;7.83;;;-0.50;99.90;;;;;;5010632;28;20179;-75
2021/01/26 06:47:23;;;;;;;16.13;8.23;;;-0.50;99.90;;;;;;5009546;28;20201;-76
2021/01/26 06:50:01;;;;;;;15.17;8.67;;;-0.50;99.90;;;;;;5011586;28;20638;-76
2021/01/26 06:52:51;;;;;;;10.87;7.77;;;-0.40;99.90;;;;;;5011594;28;20547;-75
2021/01/26 06:55:47;;;;;;;12.63;7.90;;;-0.40;99.90;;;;;;5011940;28;20988;-75
2021/01/26 06:58:21;;;;;;;25.27;9.07;;;-0.40;99.90;;;;;;5012178;28;20177;-74
2021/01/26 07:01:05;;;;;;;10.27;7.90;;;-0.40;99.90;;;;;;5012501;28;20175;-75
2021/01/26 07:04:04;;;;;;;9.53;6.20;;;-0.40;99.90;;;;;;5012576;28;20173;-75
2021/01/26 07:07:07;;;;;;;11.33;7.63;;;-0.40;99.90;;;;;;5010855;28;20225;-75
2021/01/26 07:10:11;;;;;;;10.57;6.57;;;-0.40;99.90;;;;;;5011076;28;20188;-76
2021/01/26 07:12:55;;;;;;;10.67;8.50;;;-0.40;99.90;;;;;;5012318;28;20664;-77
2021/01/26 07:15:24;;;;;;;10.90;7.93;;;-0.40;99.90;;;;;;5014704;28;20206;-76
2021/01/26 07:18:19;;;;;;;13.77;8.17;;;-0.40;99.90;;;;;;5016342;28;20664;-76
2021/01/26 07:21:10;;;;;;;12.20;6.77;;;-0.40;99.90;;;;;;5016429;28;20615;-75
2021/01/26 07:24:03;;;;;;;10.53;8.07;;;-0.40;99.90;;;;;;5017430;28;20185;-76
2021/01/26 07:26:38;;;;;;;9.20;7.10;;;-0.40;99.90;;;;;;5016108;28;20751;-76
2021/01/26 07:29:38;;;;;;;9.67;7.23;;;-0.40;99.90;;;;;;5016400;28;20211;-75
2021/01/26 07:32:21;;;;;;;12.23;7.10;;;-0.40;99.90;;;;;;5014963;28;20180;-75
2021/01/26 07:35:07;;;;;;;11.97;7.47;;;-0.40;99.90;;;;;;5016025;28;20216;-76
2021/01/26 07:37:58;;;;;;;13.70;8.87;;;-0.40;99.90;;;;;;5016108;28;20647;-76
2021/01/26 07:40:49;;;;;;;13.63;8.10;;;-0.40;99.90;;;;;;5015854;28;20265;-76
2021/01/26 07:43:47;;;;;;;9.77;7.23;;;-0.30;99.90;;;;;;5016057;28;20185;-75
2021/01/26 07:46:27;;;;;;;9.40;6.63;;;-0.30;99.90;;;;;;5015384;28;20213;-76
2021/01/26 07:49:14;;;;;;;10.93;6.97;;;-0.30;99.90;;;;;;5015915;28;20181;-76
2021/01/26 07:51:48;;;;;;;14.10;8.20;;;-0.20;99.90;;;;;;5015825;28;20189;-76
2021/01/26 07:54:34;;;;;;;7.80;5.80;;;-0.20;99.90;;;;;;5016023;28;20188;-76
2021/01/26 07:57:03;;;;;;;12.67;7.30;;;-0.20;99.90;;;;;;5015725;28;20182;-76
2021/01/26 07:59:34;;;;;;;8.93;7.67;;;-0.20;99.90;;;;;;5017979;28;20690;-76
2021/01/26 08:02:03;;;;;;;10.73;7.87;;;-0.20;99.90;;;;;;5015558;28;20178;-76
2021/01/26 08:04:36;;;;;;;10.13;7.30;;;-0.20;99.90;;;;;;5015244;28;20179;-76
2021/01/26 08:07:02;;;;;;;9.80;6.70;;;-0.10;99.90;;;;;;5014078;28;20202;-76
2021/01/26 08:09:46;;;;;;;11.13;7.57;;;-0.10;99.90;;;;;;5015436;28;20179;-76
2021/01/26 08:12:17;;;;;;;12.57;7.47;;;-0.10;99.90;;;;;;5014350;28;20548;-76
2021/01/26 08:14:53;;;;;;;11.37;7.20;;;-0.10;99.90;;;;;;5015321;28;20235;-76
2021/01/26 08:17:33;;;;;;;8.00;6.40;;;-0.20;99.90;;;;;;5015627;28;20177;-78
2021/01/26 08:20:32;;;;;;;9.57;6.90;;;-0.20;99.90;;;;;;5017174;28;20711;-78
2021/01/26 08:23:06;;;;;;;10.97;7.43;;;-0.30;99.90;;;;;;5012709;28;20242;-78
2021/01/26 08:25:38;;;;;;;10.80;6.57;;;-0.30;99.90;;;;;;5018265;28;20213;-77
2021/01/26 08:28:40;;;;;;;8.77;7.00;;;-0.20;99.90;;;;;;5020420;28;20237;-79
2021/01/26 08:31:35;;;;;;;8.73;6.73;;;-0.20;99.90;;;;;;5018775;28;20172;-78
2021/01/26 08:34:21;;;;;;;7.77;6.17;;;-0.10;99.90;;;;;;5017497;28;20190;-78
2021/01/26 08:37:07;;;;;;;8.20;6.03;;;-0.20;99.90;;;;;;5019140;28;20194;-78
2021/01/26 08:39:44;;;;;;;7.17;5.63;;;-0.20;99.90;;;;;;5020301;28;20209;-79
2021/01/26 08:42:31;;;;;;;7.77;5.93;;;-0.10;99.90;;;;;;5020182;28;20195;-79
2021/01/26 08:44:57;;;;;;;8.10;5.90;;;-0.10;99.90;;;;;;5019994;28;20261;-79
2021/01/26 08:47:58;;;;;;;5.93;4.90;;;-0.10;99.90;;;;;;5020261;28;20208;-79
2021/01/26 08:50:37;;;;;;;11.37;6.00;;;-0.10;99.90;;;;;;5005141;28;20192;-79
2021/01/26 08:53:22;;;;;;;9.63;6.13;;;-0.10;99.90;;;;;;5020411;28;20172;-79
2021/01/26 08:56:08;;;;;;;9.10;5.30;;;0.00;99.90;;;;;;5020076;28;20205;-79
2021/01/26 08:58:47;;;;;;;10.63;6.23;;;0.00;99.90;;;;;;5019911;28;20287;-78
2021/01/26 09:01:22;;;;;;;5.93;3.63;;;0.00;99.90;;;;;;5018810;28;20209;-79
2021/01/26 09:03:49;;;;;;;7.23;4.60;;;0.00;99.90;;;;;;5018519;28;20566;-78
2021/01/26 09:06:43;;;;;;;9.17;5.60;;;0.00;99.90;;;;;;5019652;28;20214;-79
2021/01/26 09:09:21;;;;;;;5.47;4.83;;;0.00;99.90;;;;;;5019737;28;20186;-79
2021/01/26 09:11:55;;;;;;;5.87;3.60;;;0.00;99.90;;;;;;5019688;28;20590;-79
2021/01/26 09:14:51;;;;;;;5.20;4.50;;;-0.10;99.90;;;;;;5017799;28;20179;-79
2021/01/26 09:17:32;;;;;;;6.43;3.83;;;-0.10;99.90;;;;;;5010663;28;20190;-79
2021/01/26 09:20:09;;;;;;;4.47;3.80;;;-0.10;99.90;;;;;;5019272;28;20205;-79
2021/01/26 09:22:35;;;;;;;4.30;3.90;;;-0.10;99.90;;;;;;5018921;28;20303;-78
2021/01/26 09:25:27;;;;;;;6.77;4.03;;;-0.10;99.90;;;;;;5019422;28;20205;-79
2021/01/26 09:28:02;;;;;;;5.10;3.30;;;-0.10;99.90;;;;;;5018728;28;20185;-79
2021/01/26 09:30:29;;;;;;;4.57;3.17;;;0.00;99.90;;;;;;5019047;28;20182;-78
2021/01/26 09:33:01;;;;;;;5.03;3.20;;;0.00;99.90;;;;;;5019324;28;20170;-79
2021/01/26 09:35:46;;;;;;;8.43;3.87;;;0.00;99.90;;;;;;5017854;28;20673;-79
2021/01/26 09:38:27;;;;;;;8.53;3.07;;;0.10;99.90;;;;;;5018261;28;20178;-79
2021/01/26 09:41:03;;;;;;;4.73;2.83;;;0.20;99.90;;;;;;5018941;28;20175;-78
2021/01/26 09:43:40;;;;;;;6.10;3.47;;;0.30;99.90;;;;;;5017853;28;20547;-79
2021/01/26 09:46:13;;;;;;;4.50;3.00;;;0.40;99.90;;;;;;5018375;28;20202;-79
2021/01/26 09:48:45;;;;;;;4.77;2.80;;;0.30;99.90;;;;;;5018755;28;20179;-78
2021/01/26 09:51:27;;;;;;;4.37;2.80;;;0.30;99.90;;;;;;5018842;28;20546;-79
2021/01/26 09:54:11;;;;;;;3.60;2.97;;;0.40;99.90;;;;;;5018011;28;20181;-78
2021/01/26 09:56:38;;;;;;;3.33;2.97;;;0.30;99.90;;;;;;5020166;28;20221;-79
2021/01/26 09:59:10;;;;;;;7.57;3.70;;;0.50;99.90;;;;;;5018511;28;20234;-79
2021/01/26 10:01:39;;;;;;;4.70;3.00;;;0.50;99.90;;;;;;5017973;28;20182;-79
2021/01/26 10:04:07;;;;;;;4.70;3.30;;;0.50;99.90;;;;;;5016608;28;20178;-78
2021/01/26 10:06:34;;;;;;;5.03;3.60;;;0.50;99.90;;;;;;5017693;28;20222;-79
2021/01/26 10:09:33;;;;;;;5.30;3.50;;;0.50;99.90;;;;;;5017530;28;20541;-78
2021/01/26 10:12:35;;;;;;;2.53;2.33;;;0.60;99.90;;;;;;4985601;28;20244;-79
2021/01/26 10:15:30;;;;;;;3.27;2.70;;;0.60;99.90;;;;;;5016208;28;20209;-79
2021/01/26 10:18:14;;;;;;;4.20;2.97;;;0.60;99.90;;;;;;5016520;28;20175;-79
2021/01/26 10:20:45;;;;;;;3.33;2.77;;;0.70;99.90;;;;;;5016134;28;20289;-79
2021/01/26 10:23:20;;;;;;;6.23;2.53;;;0.70;99.90;;;;;;5017020;28;20210;-78
2021/01/26 10:25:46;;;;;;;3.63;2.50;;;0.70;99.90;;;;;;5016533;28;20190;-78
2021/01/26 10:28:29;;;;;;;4.00;2.87;;;0.70;99.90;;;;;;5017165;28;20180;-79
2021/01/26 10:30:55;;;;;;;5.30;3.00;;;0.70;99.90;;;;;;5017256;28;20176;-79
2021/01/26 10:33:35;;;;;;;3.07;2.40;;;0.70;99.90;;;;;;5017914;28;20887;-79
2021/01/26 10:36:19;;;;;;;3.30;3.00;;;0.70;99.90;;;;;;5016684;28;20202;-78
2021/01/26 10:38:46;;;;;;;7.40;3.20;;;0.70;99.90;;;;;;5016499;28;20199;-78
2021/01/26 10:41:33;;;;;;;4.53;2.47;;;0.80;99.90;;;;;;5016719;28;20543;-79
2021/01/26 10:44:16;;;;;;;3.93;2.93;;;0.80;99.90;;;;;;5014297;28;20183;-80
2021/01/26 10:46:47;;;;;;;7.33;2.70;;;0.90;99.90;;;;;;5016934;28;20563;-78
2021/01/26 10:49:36;;;;;;;3.50;2.80;;;0.90;99.90;;;;;;5015605;28;20257;-78
2021/01/26 10:52:07;;;;;;;3.80;1.80;;;0.90;99.90;;;;;;5016473;28;20200;-78
2021/01/26 10:54:35;;;;;;;5.63;2.70;;;1.00;99.90;;;;;;5016278;28;20277;-78
2021/01/26 10:57:01;;;;;;;4.07;3.40;;;;;;;;;;5016552;28;20178;-78
2021/01/26 10:59:27;;;;;;;3.50;3.20;;;1.10;99.90;;;;;;5016251;28;20612;-79
2021/01/26 11:01:53;;;;;;;3.33;2.30;;;1.10;99.90;;;;;;5016603;28;20342;-79
2021/01/26 11:04:20;;;;;;;4.50;3.10;;;1.20;99.90;;;;;;5016532;28;20205;-79
2021/01/26 11:06:46;;;;;;;4.90;3.20;;;1.20;99.90;;;;;;5016238;28;20256;-78
2021/01/26 11:09:14;;;;;;;6.13;2.90;;;1.20;99.90;;;;;;5015333;28;20187;-79
2021/01/26 11:11:42;;;;;;;5.13;2.90;;;1.20;99.90;;;;;;5015727;28;20179;-78
2021/01/26 11:14:08;;;;;;;5.20;3.07;;;1.20;99.90;;;;;;5013895;28;20745;-78
2021/01/26 11:16:34;;;;;;;5.73;2.73;;;1.30;99.90;;;;;;5014888;28;20584;-78
2021/01/26 11:19:04;;;;;;;5.20;3.23;;;1.20;99.90;;;;;;5016108;28;20213;-78
2021/01/26 11:21:31;;;;;;;2.57;2.37;;;1.30;99.90;;;;;;5015610;28;20182;-78
2021/01/26 11:23:56;;;;;;;4.50;3.00;;;1.30;99.90;;;;;;5015818;28;20189;-78
2021/01/26 11:26:24;;;;;;;5.57;2.20;;;1.30;99.90;;;;;;5015283;28;20214;-78
2021/01/26 11:28:50;;;;;;;4.50;2.73;;;1.30;99.90;;;;;;5015184;28;20179;-79
2021/01/26 11:31:16;;;;;;;4.40;3.53;;;1.30;99.90;;;;;;5016210;28;20190;-79
2021/01/26 11:33:42;;;;;;;4.97;2.87;;;1.30;99.90;;;;;;5015350;28;20183;-78
2021/01/26 11:36:09;;;;;;;5.80;3.50;;;1.30;99.90;;;;;;5016484;28;20206;-78
2021/01/26 11:38:35;;;;;;;4.63;3.27;;;1.40;99.90;;;;;;5014555;28;20703;-79
2021/01/26 11:41:05;;;;;;;4.43;3.10;;;1.40;99.90;;;;;;5015789;28;20209;-79
2021/01/26 11:43:34;;;;;;;7.80;2.67;;;1.50;99.90;;;;;;5016020;28;20195;-79
2021/01/26 11:46:00;;;;;;;2.60;2.40;;;1.50;99.90;;;;;;5015419;28;20192;-79
2021/01/26 11:48:26;;;;;;;7.17;3.17;;;1.50;99.90;;;;;;5015173;28;20182;-78
2021/01/26 11:50:53;;;;;;;4.03;2.40;;;1.60;99.90;;;;;;5014766;28;20179;-79
2021/01/26 11:53:20;;;;;;;6.00;2.57;;;1.60;99.90;;;;;;5015235;28;20175;-78
2021/01/26 11:55:46;;;;;;;2.40;1.80;;;1.60;99.90;;;;;;5015704;28;20195;-79
2021/01/26 11:58:12;;;;;;;5.03;2.63;;;1.80;99.90;;;;;;5015156;28;20250;-79
2021/01/26 12:00:39;;;;;;;6.50;3.17;;;1.60;99.90;;;;;;5012585;28;20273;-79
2021/01/26 12:03:06;;;;;;;3.50;2.50;;;1.70;99.90;;;;;;5016786;28;20689;-78
2021/01/26 12:05:35;;;;;;;3.50;2.67;;;1.80;99.90;;;;;;5018598;28;20592;-79
2021/01/26 12:08:02;;;;;;;5.17;2.60;;;1.90;99.90;;;;;;5019703;28;20209;-78
2021/01/26 12:10:28;;;;;;;4.17;2.60;;;1.80;99.90;;;;;;5018178;28;20217;-78
2021/01/26 12:12:54;;;;;;;2.80;2.30;;;1.80;99.90;;;;;;5016716;28;20187;-73
2021/01/26 12:15:27;;;;;;;4.30;2.50;;;1.90;99.90;;;;;;5014787;28;20302;-73
2021/01/26 12:17:53;;;;;;;4.43;2.77;;;2.00;99.90;;;;;;5015379;28;20182;-74
2021/01/26 12:20:20;;;;;;;2.97;2.67;;;2.10;99.90;;;;;;5013888;28;20257;-73
2021/01/26 12:22:46;;;;;;;4.97;2.10;;;2.20;99.90;;;;;;5015278;28;20179;-74
2021/01/26 12:25:13;;;;;;;3.33;2.60;;;2.20;99.90;;;;;;5014380;28;20201;-73
2021/01/26 12:27:39;;;;;;;2.27;2.07;;;2.20;99.90;;;;;;5015083;28;20321;-73
2021/01/26 12:30:05;;;;;;;3.53;2.27;;;2.10;99.90;;;;;;5012408;28;20270;-73
2021/01/26 12:32:33;;;;;;;4.60;2.43;;;2.00;99.90;;;;;;5014174;28;20270;-74
2021/01/26 12:35:10;;;;;;;4.07;2.60;;;2.00;99.90;;;;;;5016410;28;20718;-74
2021/01/26 12:37:36;;;;;;;7.80;2.70;;;2.00;99.90;;;;;;5014450;28;20190;-74
2021/01/26 12:40:04;;;;;;;5.27;2.90;;;2.10;99.90;;;;;;5014790;28;20227;-74
2021/01/26 12:42:30;;;;;;;4.90;2.63;;;2.10;99.90;;;;;;5015071;28;20225;-74
2021/01/26 12:44:55;;;;;;;3.03;2.10;;;2.10;99.90;;;;;;5013475;28;20227;-74
2021/01/26 12:47:23;;;;;;;4.00;2.30;;;2.10;99.90;;;;;;5014712;28;20180;-74
2021/01/26 12:49:49;;;;;;;5.33;2.50;;;2.00;99.90;;;;;;5014752;28;20179;-74
2021/01/26 12:52:15;;;;;;;2.50;2.30;;;2.00;99.90;;;;;;5014974;28;20191;-74
2021/01/26 12:54:41;;;;;;;5.00;2.70;;;2.00;99.90;;;;;;5014542;28;20313;-73
2021/01/26 12:57:07;;;;;;;5.37;3.20;;;2.10;99.90;;;;;;5013410;28;20191;-73
2021/01/26 12:59:32;;;;;;;6.47;2.73;;;2.20;99.90;;;;;;5013043;28;20207;-74
2021/01/26 13:02:01;;;;;;;3.20;2.90;;;2.20;99.90;;;;;;5014336;28;20200;-73
2021/01/26 13:04:27;;;;;;;4.23;2.97;;;2.10;99.90;;;;;;5014416;28;20191;-74
2021/01/26 13:06:53;;;;;;;4.53;2.97;;;2.30;99.90;;;;;;5014529;28;20341;-74
2021/01/26 13:09:19;;;;;;;5.03;3.37;;;2.20;99.90;;;;;;5014347;28;20236;-74
2021/01/26 13:11:45;;;;;;;3.60;2.60;;;2.30;99.90;;;;;;5014401;28;20688;-74
2021/01/26 13:14:11;;;;;;;6.33;2.10;;;2.30;99.90;;;;;;5012824;28;20186;-74
2021/01/26 13:16:40;;;;;;;7.53;2.87;;;2.30;99.90;;;;;;5014379;28;20210;-74
2021/01/26 13:19:07;;;;;;;6.57;2.77;;;2.30;99.90;;;;;;5014524;28;20207;-74
2021/01/26 13:21:34;;;;;;;3.80;2.47;;;2.20;99.90;;;;;;5012846;28;20187;-74
2021/01/26 13:24:01;;;;;;;3.60;2.17;;;2.20;99.90;;;;;;5014421;28;20182;-74
2021/01/26 13:26:28;;;;;;;4.60;2.10;;;2.10;99.90;;;;;;5014260;28;20205;-73
2021/01/26 13:28:54;;;;;;;4.53;2.93;;;2.10;99.90;;;;;;5013974;28;20191;-74